createdAt,value
2019-05-28T00:00:50.407Z,99.90
2019-05-28T00:01:56.597Z,99.90
2019-05-28T00:03:01.247Z,99.90
2019-05-28T00:04:06.495Z,99.90
2019-05-28T00:05:11.302Z,99.90
2019-05-28T00:06:16.520Z,99.90
2019-05-28T00:07:21.180Z,99.90
2019-05-28T00:08:26.509Z,99.90
2019-05-28T00:09:31.233Z,99.90
2019-05-28T00:10:36.470Z,99.90
2019-05-28T00:11:41.156Z,99.90
2019-05-28T00:12:46.360Z,99.90
2019-05-28T00:13:51.065Z,99.90
2019-05-28T00:14:56.287Z,99.90
2019-05-28T00:16:02.553Z,99.90
2019-05-28T00:17:08.157Z,99.90
2019-05-28T00:18:29.997Z,99.90
2019-05-28T00:19:35.231Z,99.90
2019-05-28T00:20:40.109Z,99.90
2019-05-28T00:21:45.307Z,99.90
2019-05-28T00:22:50.085Z,99.90
2019-05-28T00:23:55.244Z,99.90
2019-05-28T00:24:59.853Z,99.90
2019-05-28T00:26:05.200Z,99.90
2019-05-28T00:27:09.908Z,99.90
2019-05-28T00:28:15.210Z,99.90
2019-05-28T00:29:19.772Z,99.90
2019-05-28T00:30:25.208Z,99.90
2019-05-28T00:31:29.772Z,99.90
2019-05-28T00:32:34.978Z,99.90
2019-05-28T00:33:39.716Z,99.90
2019-05-28T00:34:45.203Z,99.90
2019-05-28T00:35:50.839Z,99.90
2019-05-28T00:36:56.293Z,99.90
2019-05-28T00:38:00.898Z,99.90
2019-05-28T00:39:08.405Z,99.90
2019-05-28T00:40:13.631Z,99.90
2019-05-28T00:41:18.830Z,99.90
2019-05-28T00:42:23.495Z,99.90
2019-05-28T00:43:28.629Z,99.90
2019-05-28T00:44:33.244Z,99.90
2019-05-28T00:45:38.420Z,99.90
2019-05-28T00:46:42.991Z,99.90
2019-05-28T00:47:48.234Z,99.90
2019-05-28T00:48:52.823Z,99.90
2019-05-28T00:49:58.074Z,99.90
2019-05-28T00:51:02.799Z,99.90
2019-05-28T00:52:07.958Z,99.90
2019-05-28T00:53:12.533Z,99.90
2019-05-28T00:54:17.671Z,99.90
2019-05-28T00:55:22.339Z,99.90
2019-05-28T00:56:28.111Z,99.90
2019-05-28T00:57:33.583Z,99.90
2019-05-28T00:58:39.101Z,99.90
2019-05-28T00:59:45.385Z,99.90
2019-05-28T01:00:51.455Z,99.90
2019-05-28T01:01:56.119Z,99.90
2019-05-28T01:03:01.254Z,99.90
2019-05-28T01:04:05.898Z,99.90
2019-05-28T01:05:11.639Z,99.90
2019-05-28T01:06:16.247Z,99.90
2019-05-28T01:07:21.422Z,99.90
2019-05-28T01:08:26.003Z,99.90
2019-05-28T01:09:31.270Z,99.90
2019-05-28T01:10:35.919Z,99.90
2019-05-28T01:11:41.087Z,99.90
2019-05-28T01:12:45.700Z,99.90
2019-05-28T01:13:51.152Z,99.90
2019-05-28T01:14:55.695Z,99.90
2019-05-28T01:16:00.884Z,99.90
2019-05-28T01:17:05.554Z,99.90
2019-05-28T01:18:10.839Z,99.90
2019-05-28T01:19:15.411Z,99.90
2019-05-28T01:20:20.955Z,99.90
2019-05-28T01:21:25.708Z,99.90
2019-05-28T01:22:30.876Z,99.90
2019-05-28T01:23:35.452Z,99.90
2019-05-28T01:24:40.735Z,99.90
2019-05-28T01:25:45.329Z,99.90
2019-05-28T01:26:50.520Z,99.90
2019-05-28T01:27:55.067Z,99.90
2019-05-28T01:29:00.198Z,99.90
2019-05-28T01:30:05.659Z,99.90
2019-05-28T01:31:10.876Z,99.90
2019-05-28T01:32:15.440Z,99.90
2019-05-28T01:33:20.597Z,99.90
2019-05-28T01:34:25.172Z,99.90
2019-05-28T01:35:30.340Z,99.90
2019-05-28T01:36:34.996Z,99.90
2019-05-28T01:37:40.210Z,99.90
2019-05-28T01:38:44.807Z,99.90
2019-05-28T01:39:49.936Z,99.90
2019-05-28T01:40:55.488Z,99.90
2019-05-28T01:42:00.696Z,99.90
2019-05-28T01:43:05.260Z,99.90
2019-05-28T01:44:10.395Z,99.90
2019-05-28T01:45:16.267Z,99.90
2019-05-28T01:46:21.519Z,99.90
2019-05-28T01:47:26.093Z,99.90
2019-05-28T01:48:31.294Z,99.90
2019-05-28T01:49:35.868Z,99.90
2019-05-28T01:50:41.019Z,99.90
2019-05-28T01:51:45.576Z,99.90
2019-05-28T01:52:50.772Z,99.90
2019-05-28T01:53:55.329Z,99.90
2019-05-28T01:55:01.479Z,99.90
2019-05-28T01:56:06.164Z,99.90
2019-05-28T01:57:11.325Z,99.90
2019-05-28T01:58:15.905Z,99.90
2019-05-28T01:59:22.071Z,99.90
2019-05-28T02:00:27.776Z,99.90
2019-05-28T02:01:32.998Z,99.90
2019-05-28T02:02:38.527Z,99.90
2019-05-28T02:03:43.676Z,99.90
2019-05-28T02:04:48.314Z,99.90
2019-05-28T02:05:53.536Z,99.90
2019-05-28T02:06:58.156Z,99.90
2019-05-28T02:08:03.365Z,99.90
2019-05-28T02:09:08.484Z,99.90
2019-05-28T02:10:14.733Z,99.90
2019-05-28T02:11:19.330Z,99.90
2019-05-28T02:12:24.515Z,99.90
2019-05-28T02:13:29.099Z,99.90
2019-05-28T02:14:34.250Z,99.90
2019-05-28T02:15:38.827Z,99.90
2019-05-28T02:16:44.021Z,99.90
2019-05-28T02:17:48.724Z,99.90
2019-05-28T02:18:54.806Z,99.90
2019-05-28T02:20:00.452Z,99.90
2019-05-28T02:21:05.803Z,99.90
2019-05-28T02:22:10.445Z,99.90
2019-05-28T02:23:15.704Z,99.90
2019-05-28T02:24:20.293Z,99.90
2019-05-28T02:25:25.457Z,99.90
2019-05-28T02:26:30.145Z,99.90
2019-05-28T02:27:35.308Z,99.90
2019-05-28T02:28:39.897Z,99.90
2019-05-28T02:29:45.064Z,99.90
2019-05-28T02:30:49.616Z,99.90
2019-05-28T02:31:55.163Z,99.90
2019-05-28T02:32:59.815Z,99.90
2019-05-28T02:34:06.125Z,99.90
2019-05-28T02:35:11.372Z,99.90
2019-05-28T02:36:16.525Z,99.90
2019-05-28T02:37:21.095Z,99.90
2019-05-28T02:38:26.300Z,99.90
2019-05-28T02:39:30.852Z,99.90
2019-05-28T02:40:36.027Z,99.90
2019-05-28T02:41:40.646Z,99.90
2019-05-28T02:42:58.321Z,99.90
2019-05-28T02:44:03.027Z,99.90
2019-05-28T02:45:09.160Z,99.90
2019-05-28T02:46:14.722Z,99.90
2019-05-28T02:47:19.973Z,99.90
2019-05-28T02:48:24.620Z,99.90
2019-05-28T02:49:29.761Z,99.90
2019-05-28T02:50:51.666Z,99.90
2019-05-28T02:51:56.885Z,99.90
2019-05-28T02:53:01.539Z,99.90
2019-05-28T02:54:06.809Z,99.90
2019-05-28T02:55:14.706Z,99.90
2019-05-28T02:56:20.140Z,99.90
2019-05-28T02:57:25.652Z,99.90
2019-05-28T02:58:43.754Z,99.90
2019-05-28T02:59:50.883Z,99.90
2019-05-28T03:00:57.832Z,99.90
2019-05-28T03:02:04.883Z,99.90
2019-05-28T03:03:12.526Z,99.90
2019-05-28T03:04:20.249Z,99.90
2019-05-28T03:05:25.372Z,99.90
2019-05-28T03:06:31.979Z,99.90
2019-05-28T03:07:40.212Z,99.90
2019-05-28T03:08:47.250Z,99.90
2019-05-28T03:09:55.471Z,99.90
2019-05-28T03:11:03.501Z,99.90
2019-05-28T03:12:07.368Z,99.90
2019-05-28T03:13:11.952Z,99.90
2019-05-28T03:14:17.104Z,99.90
2019-05-28T03:15:21.676Z,99.90
2019-05-28T03:16:29.648Z,99.90
2019-05-28T03:17:36.200Z,99.90
2019-05-28T03:18:42.726Z,99.90
2019-05-28T03:19:47.785Z,99.90
2019-05-28T03:20:54.716Z,99.90
2019-05-28T03:22:01.927Z,99.90
2019-05-28T03:23:08.719Z,99.90
2019-05-28T03:24:14.433Z,99.90
2019-05-28T03:25:20.950Z,99.90
2019-05-28T03:26:25.716Z,99.90
2019-05-28T03:27:30.885Z,99.90
2019-05-28T03:28:35.592Z,99.90
2019-05-28T03:29:40.732Z,99.90
2019-05-28T03:30:45.378Z,99.90
2019-05-28T03:32:07.246Z,99.90
2019-05-28T03:32:57.259Z,99.90
2019-05-28T03:34:03.033Z,99.90
2019-05-28T03:35:07.972Z,99.90
2019-05-28T03:36:14.800Z,99.90
2019-05-28T03:37:20.267Z,99.90
2019-05-28T03:38:27.243Z,99.90
2019-05-28T03:39:33.592Z,99.90
2019-05-28T03:40:42.988Z,99.90
2019-05-28T03:41:47.553Z,99.90
2019-05-28T03:42:52.653Z,99.90
2019-05-28T03:43:57.232Z,99.90
2019-05-28T03:45:02.479Z,99.90
2019-05-28T03:46:07.031Z,99.90
2019-05-28T03:47:12.204Z,99.90
2019-05-28T03:48:16.788Z,99.90
2019-05-28T03:49:22.021Z,99.90
2019-05-28T03:50:26.571Z,99.90
2019-05-28T03:51:31.864Z,99.90
2019-05-28T03:52:36.501Z,99.90
2019-05-28T03:53:41.668Z,99.90
2019-05-28T03:54:46.253Z,99.90
2019-05-28T03:55:51.515Z,99.90
2019-05-28T03:56:56.093Z,99.90
2019-05-28T03:58:01.252Z,99.90
2019-05-28T03:59:05.903Z,99.90
2019-05-28T04:00:11.206Z,99.90
2019-05-28T04:01:15.838Z,99.90
2019-05-28T04:02:23.837Z,99.90
2019-05-28T04:03:34.885Z,99.90
2019-05-28T04:04:40.107Z,99.90
2019-05-28T04:05:44.763Z,99.90
2019-05-28T04:06:49.946Z,99.90
2019-05-28T04:07:54.582Z,99.90
2019-05-28T04:08:59.747Z,99.90
2019-05-28T04:10:05.106Z,99.90
2019-05-28T04:11:10.427Z,99.90
2019-05-28T04:12:14.962Z,99.90
2019-05-28T04:13:21.121Z,99.90
2019-05-28T04:14:25.736Z,99.90
2019-05-28T04:15:31.051Z,99.90
2019-05-28T04:16:35.645Z,99.90
2019-05-28T04:17:40.788Z,99.90
2019-05-28T04:18:45.373Z,99.90
2019-05-28T04:19:50.528Z,99.90
2019-05-28T04:20:55.135Z,99.90
2019-05-28T04:22:00.281Z,99.90
2019-05-28T04:23:10.359Z,99.90
2019-05-28T04:24:15.502Z,99.90
2019-05-28T04:25:20.112Z,99.90
2019-05-28T04:26:25.294Z,99.90
2019-05-28T04:27:29.871Z,99.90
2019-05-28T04:28:35.078Z,99.90
2019-05-28T04:29:39.742Z,99.90
2019-05-28T04:30:45.170Z,99.90
2019-05-28T04:31:49.736Z,99.90
2019-05-28T04:32:55.051Z,99.90
2019-05-28T04:33:59.637Z,99.90
2019-05-28T04:35:05.374Z,99.90
2019-05-28T04:36:09.970Z,99.90
2019-05-28T04:37:15.148Z,99.90
2019-05-28T04:38:19.767Z,99.90
2019-05-28T04:39:25.024Z,99.90
2019-05-28T04:40:29.656Z,99.90
2019-05-28T04:41:34.783Z,99.90
2019-05-28T04:42:39.420Z,99.90
2019-05-28T04:43:45.647Z,99.90
2019-05-28T04:44:50.235Z,99.90
2019-05-28T04:45:55.430Z,99.90
2019-05-28T04:47:00.003Z,99.90
2019-05-28T04:48:05.795Z,99.90
2019-05-28T04:49:10.415Z,99.90
2019-05-28T04:50:18.013Z,99.90
2019-05-28T04:51:22.600Z,99.90
2019-05-28T04:52:30.804Z,99.90
2019-05-28T04:53:35.019Z,99.90
2019-05-28T04:54:40.147Z,99.90
2019-05-28T04:55:44.774Z,99.90
2019-05-28T04:56:49.976Z,99.90
2019-05-28T04:57:54.532Z,99.90
2019-05-28T04:58:59.727Z,99.90
2019-05-28T05:00:05.577Z,99.90
2019-05-28T05:01:10.778Z,99.90
2019-05-28T05:02:15.439Z,99.90
2019-05-28T05:03:20.570Z,99.90
2019-05-28T05:04:26.476Z,99.90
2019-05-28T05:05:31.639Z,99.90
2019-05-28T05:06:36.274Z,99.90
2019-05-28T05:07:42.429Z,99.90
2019-05-28T05:08:47.179Z,99.90
2019-05-28T05:09:52.495Z,99.90
2019-05-28T05:10:57.170Z,99.90
2019-05-28T05:12:02.545Z,99.90
2019-05-28T05:13:07.185Z,99.90
2019-05-28T05:14:12.346Z,99.90
2019-05-28T05:15:17.495Z,99.90
2019-05-28T05:16:22.661Z,99.90
2019-05-28T05:17:27.278Z,99.90
2019-05-28T05:18:32.437Z,99.90
2019-05-28T05:19:37.167Z,99.90
2019-05-28T05:20:42.369Z,99.90
2019-05-28T05:21:46.923Z,99.90
2019-05-28T05:22:55.967Z,99.90
2019-05-28T05:24:00.562Z,99.90
2019-05-28T05:25:06.826Z,99.90
2019-05-28T05:26:12.292Z,99.90
2019-05-28T05:27:17.573Z,99.90
2019-05-28T05:28:22.205Z,99.90
2019-05-28T05:29:27.404Z,99.90
2019-05-28T05:30:32.042Z,99.90
2019-05-28T05:31:37.380Z,99.90
2019-05-28T05:32:42.173Z,99.90
2019-05-28T05:33:47.403Z,99.90
2019-05-28T05:34:52.063Z,99.90
2019-05-28T05:35:57.632Z,99.90
2019-05-28T05:37:08.381Z,99.90
2019-05-28T05:38:13.603Z,99.90
2019-05-28T05:39:18.168Z,99.90
2019-05-28T05:40:23.902Z,99.90
2019-05-28T05:41:28.725Z,99.90
2019-05-28T05:42:33.935Z,99.90
2019-05-28T05:43:38.655Z,99.90
2019-05-28T05:44:43.798Z,99.90
2019-05-28T05:45:48.403Z,99.90
2019-05-28T05:46:53.630Z,99.90
2019-05-28T05:47:58.262Z,99.90
2019-05-28T05:49:03.588Z,99.90
2019-05-28T05:50:08.948Z,99.90
2019-05-28T05:51:14.346Z,99.90
2019-05-28T05:52:18.970Z,92.40
2019-05-28T05:53:24.151Z,48.40
2019-05-28T05:54:28.809Z,19.00
2019-05-28T05:55:34.033Z,18.00
2019-05-28T05:56:38.633Z,27.50
2019-05-28T05:57:43.841Z,4.30
2019-05-28T05:58:48.486Z,18.20
2019-05-28T05:59:53.647Z,21.50
2019-05-28T06:00:58.227Z,24.00
2019-05-28T06:02:03.454Z,18.80
2019-05-28T06:03:08.190Z,26.70
2019-05-28T06:04:13.371Z,22.40
2019-05-28T06:05:18.341Z,18.70
2019-05-28T06:06:23.558Z,1.00
2019-05-28T06:07:28.497Z,19.20
2019-05-28T06:08:36.961Z,3.60
2019-05-28T06:09:40.654Z,1.00
2019-05-28T06:10:45.922Z,1.00
2019-05-28T06:11:50.617Z,1.00
2019-05-28T06:12:55.858Z,1.00
2019-05-28T06:14:00.468Z,1.00
2019-05-28T06:15:06.738Z,1.00
2019-05-28T06:16:11.396Z,1.00
2019-05-28T06:17:16.565Z,1.00
2019-05-28T06:18:21.159Z,1.00
2019-05-28T06:19:26.375Z,1.00
2019-05-28T06:20:31.123Z,1.00
2019-05-28T06:21:36.278Z,1.00
2019-05-28T06:22:40.919Z,1.00
2019-05-28T06:23:46.192Z,1.00
2019-05-28T06:24:50.984Z,1.00
2019-05-28T06:25:56.163Z,1.00
2019-05-28T06:27:00.876Z,1.00
2019-05-28T06:28:06.153Z,1.00
2019-05-28T06:29:10.821Z,1.00
2019-05-28T06:30:16.115Z,1.00
2019-05-28T06:31:20.735Z,99.90
2019-05-28T06:32:25.973Z,99.90
2019-05-28T06:33:30.599Z,1.00
2019-05-28T06:34:35.885Z,1.00
2019-05-28T06:35:40.504Z,1.00
2019-05-28T06:36:45.787Z,1.00
2019-05-28T06:37:50.462Z,1.00
2019-05-28T06:38:55.720Z,1.00
2019-05-28T06:40:00.412Z,1.00
2019-05-28T06:41:06.696Z,1.00
2019-05-28T06:42:11.429Z,99.90
2019-05-28T06:43:16.861Z,99.90
2019-05-28T06:44:21.563Z,1.00
2019-05-28T06:45:26.940Z,99.90
2019-05-28T06:46:31.548Z,99.90
2019-05-28T06:47:36.692Z,1.00
2019-05-28T06:48:41.439Z,1.00
2019-05-28T06:49:46.701Z,1.00
2019-05-28T06:50:51.446Z,1.00
2019-05-28T06:51:56.733Z,1.00
2019-05-28T06:53:01.405Z,1.00
2019-05-28T06:54:06.788Z,1.00
2019-05-28T06:55:11.918Z,1.00
2019-05-28T06:56:17.159Z,1.00
2019-05-28T06:57:23.370Z,1.00
2019-05-28T06:58:38.802Z,1.00
2019-05-28T06:59:35.244Z,1.00
2019-05-28T07:00:40.522Z,99.90
2019-05-28T07:01:45.102Z,1.00
2019-05-28T07:02:50.498Z,1.00
2019-05-28T07:04:10.629Z,1.00
2019-05-28T07:05:02.020Z,1.00
2019-05-28T07:06:08.183Z,1.00
2019-05-28T07:07:13.568Z,1.00
2019-05-28T07:08:18.189Z,1.00
2019-05-28T07:09:35.457Z,1.00
2019-05-28T07:10:56.639Z,1.00
2019-05-28T07:11:46.971Z,1.00
2019-05-28T07:12:51.613Z,1.00
2019-05-28T07:13:56.852Z,1.00
2019-05-28T07:15:01.869Z,1.00
2019-05-28T07:16:08.448Z,1.00
2019-05-28T07:17:13.097Z,99.90
2019-05-28T07:18:18.373Z,99.90
2019-05-28T07:19:24.975Z,1.00
2019-05-28T07:20:29.982Z,99.90
2019-05-28T07:21:34.576Z,99.90
2019-05-28T07:22:39.787Z,99.90
2019-05-28T07:23:44.434Z,99.90
2019-05-28T07:24:49.670Z,99.90
2019-05-28T07:25:54.700Z,99.90
2019-05-28T07:26:59.891Z,99.90
2019-05-28T07:28:11.293Z,99.90
2019-05-28T07:29:11.369Z,99.90
2019-05-28T07:30:16.295Z,99.90
2019-05-28T07:31:21.488Z,99.90
2019-05-28T07:32:26.092Z,99.90
2019-05-28T07:33:34.806Z,99.90
2019-05-28T07:34:37.656Z,99.90
2019-05-28T07:35:46.220Z,99.90
2019-05-28T07:36:49.815Z,99.90
2019-05-28T07:37:55.298Z,99.90
2019-05-28T07:39:00.423Z,94.30
2019-05-28T07:40:06.372Z,81.20
2019-05-28T07:41:10.967Z,81.50
2019-05-28T07:42:31.726Z,89.70
2019-05-28T07:43:22.488Z,82.20
2019-05-28T07:44:27.765Z,99.50
2019-05-28T07:45:32.439Z,99.90
2019-05-28T07:46:37.678Z,91.40
2019-05-28T07:47:42.282Z,99.30
2019-05-28T07:48:47.465Z,80.40
2019-05-28T07:49:52.048Z,83.90
2019-05-28T07:50:57.232Z,99.90
2019-05-28T07:52:02.800Z,87.70
2019-05-28T07:53:07.968Z,99.90
2019-05-28T07:54:12.706Z,99.90
2019-05-28T07:55:18.113Z,99.90
2019-05-28T07:56:22.755Z,99.90
2019-05-28T07:57:27.956Z,99.90
2019-05-28T07:58:32.538Z,90.70
2019-05-28T07:59:37.732Z,74.90
2019-05-28T08:00:42.834Z,19.80
2019-05-28T08:01:48.063Z,64.80
2019-05-28T08:02:52.676Z,36.60
2019-05-28T08:03:58.008Z,76.30
2019-05-28T08:05:02.743Z,61.00
2019-05-28T08:06:09.068Z,45.00
2019-05-28T08:07:13.810Z,38.00
2019-05-28T08:08:20.827Z,21.90
2019-05-28T08:09:26.431Z,1.00
2019-05-28T08:10:31.743Z,1.00
2019-05-28T08:11:36.368Z,17.10
2019-05-28T08:12:41.549Z,1.00
2019-05-28T08:13:46.170Z,13.10
2019-05-28T08:14:51.380Z,1.00
2019-05-28T08:16:16.528Z,1.00
2019-05-28T08:17:02.866Z,1.00
2019-05-28T08:18:07.540Z,1.00
2019-05-28T08:19:12.714Z,1.00
2019-05-28T08:20:18.645Z,1.00
2019-05-28T08:21:24.050Z,1.00
2019-05-28T08:22:41.692Z,1.00
2019-05-28T08:23:35.524Z,1.00
2019-05-28T08:24:40.163Z,1.00
2019-05-28T08:25:47.854Z,1.00
2019-05-28T08:26:51.763Z,1.00
2019-05-28T08:27:56.932Z,1.00
2019-05-28T08:29:01.520Z,1.00
2019-05-28T08:30:07.228Z,1.00
2019-05-28T08:31:17.316Z,1.00
2019-05-28T08:32:19.008Z,1.00
2019-05-28T08:33:23.668Z,1.00
2019-05-28T08:34:29.184Z,1.00
2019-05-28T08:35:33.906Z,1.00
2019-05-28T08:36:39.115Z,1.00
2019-05-28T08:37:43.744Z,1.00
2019-05-28T08:38:48.964Z,1.00
2019-05-28T08:39:53.645Z,1.00
2019-05-28T08:40:58.809Z,1.00
2019-05-28T08:42:03.736Z,1.00
2019-05-28T08:43:10.038Z,1.00
2019-05-28T08:44:14.926Z,1.00
2019-05-28T08:45:20.357Z,1.00
2019-05-28T08:46:24.942Z,1.00
2019-05-28T08:47:30.121Z,1.00
2019-05-28T08:48:34.900Z,1.00
2019-05-28T08:49:40.092Z,1.00
2019-05-28T08:50:44.694Z,1.00
2019-05-28T08:51:49.879Z,1.00
2019-05-28T08:52:54.873Z,1.00
2019-05-28T08:54:00.069Z,1.00
2019-05-28T08:55:05.159Z,1.00
2019-05-28T08:56:10.328Z,1.00
2019-05-28T08:57:15.006Z,1.00
2019-05-28T08:58:20.180Z,1.00
2019-05-28T08:59:24.854Z,1.00
2019-05-28T09:00:38.563Z,1.00
2019-05-28T09:01:43.307Z,1.00
2019-05-28T09:02:48.578Z,1.00
2019-05-28T09:03:53.251Z,1.00
2019-05-28T09:04:58.554Z,1.00
2019-05-28T09:06:03.328Z,1.00
2019-05-28T09:07:08.553Z,1.00
2019-05-28T09:08:13.407Z,1.00
2019-05-28T09:09:18.574Z,1.00
2019-05-28T09:10:23.163Z,1.00
2019-05-28T09:11:28.390Z,1.00
2019-05-28T09:12:33.130Z,1.00
2019-05-28T09:13:38.440Z,1.00
2019-05-28T09:14:55.819Z,1.00
2019-05-28T09:15:50.071Z,1.00
2019-05-28T09:16:54.962Z,1.00
2019-05-28T09:18:00.122Z,1.00
2019-05-28T09:19:04.829Z,1.00
2019-05-28T09:20:10.456Z,1.00
2019-05-28T09:21:15.130Z,1.00
2019-05-28T09:22:25.892Z,1.00
2019-05-28T09:23:26.660Z,1.00
2019-05-28T09:24:31.952Z,1.00
2019-05-28T09:25:36.534Z,1.00
2019-05-28T09:26:41.707Z,1.00
2019-05-28T09:27:46.269Z,1.00
2019-05-28T09:28:51.468Z,1.00
2019-05-28T09:29:56.108Z,1.00
2019-05-28T09:31:01.252Z,1.00
2019-05-28T09:32:05.951Z,1.00
2019-05-28T09:33:11.206Z,1.00
2019-05-28T09:34:15.953Z,1.00
2019-05-28T09:35:21.269Z,2.60
2019-05-28T09:36:25.902Z,99.90
2019-05-28T09:37:31.082Z,98.80
2019-05-28T09:38:35.763Z,78.30
2019-05-28T09:39:40.963Z,34.50
2019-05-28T09:40:50.406Z,17.60
2019-05-28T09:41:52.618Z,80.60
2019-05-28T09:42:57.260Z,99.90
2019-05-28T09:44:02.491Z,99.90
2019-05-28T09:45:21.931Z,99.90
2019-05-28T09:46:14.867Z,99.90
2019-05-28T09:47:19.559Z,99.90
2019-05-28T09:48:24.834Z,99.90
2019-05-28T09:49:29.568Z,99.90
2019-05-28T09:50:34.758Z,99.90
2019-05-28T09:51:39.359Z,99.90
2019-05-28T09:52:54.322Z,99.90
2019-05-28T09:53:50.891Z,99.90
2019-05-28T09:54:56.271Z,99.90
2019-05-28T09:56:00.943Z,99.90
2019-05-28T09:57:06.183Z,99.90
2019-05-28T09:58:10.859Z,99.90
2019-05-28T09:59:16.157Z,99.90
2019-05-28T10:00:22.299Z,99.90
2019-05-28T10:01:27.695Z,99.90
2019-05-28T10:02:32.439Z,99.90
2019-05-28T10:03:37.672Z,99.90
2019-05-28T10:04:49.140Z,99.90
2019-05-28T10:05:58.603Z,99.90
2019-05-28T10:06:55.636Z,99.90
2019-05-28T10:08:01.467Z,99.90
2019-05-28T10:09:07.154Z,99.90
2019-05-28T10:10:13.104Z,99.90
2019-05-28T10:11:17.675Z,99.90
2019-05-28T10:12:26.554Z,99.90
2019-05-28T10:13:39.237Z,99.90
2019-05-28T10:14:38.323Z,99.90
2019-05-28T10:15:42.982Z,99.90
2019-05-28T10:16:48.328Z,99.90
2019-05-28T10:17:54.965Z,99.90
2019-05-28T10:19:00.273Z,99.90
2019-05-28T10:20:06.238Z,99.90
2019-05-28T10:21:18.205Z,99.90
2019-05-28T10:22:17.921Z,99.90
2019-05-28T10:23:23.237Z,99.90
2019-05-28T10:24:27.872Z,99.90
2019-05-28T10:25:33.145Z,99.90
2019-05-28T10:26:37.758Z,99.90
2019-05-28T10:27:59.430Z,99.90
2019-05-28T10:28:50.547Z,99.90
2019-05-28T10:29:56.185Z,99.90
2019-05-28T10:31:00.888Z,99.90
2019-05-28T10:32:06.391Z,99.90
2019-05-28T10:33:11.030Z,99.90
2019-05-28T10:34:16.243Z,99.90
2019-05-28T10:35:22.668Z,99.90
2019-05-28T10:36:36.199Z,99.90
2019-05-28T10:37:44.604Z,99.90
2019-05-28T10:38:46.990Z,99.90
2019-05-28T10:39:51.694Z,99.90
2019-05-28T10:40:56.905Z,99.90
2019-05-28T10:42:04.469Z,99.90
2019-05-28T10:43:09.725Z,99.90
2019-05-28T10:44:14.728Z,68.20
2019-05-28T10:45:21.357Z,77.70
2019-05-28T10:46:26.093Z,51.80
2019-05-28T10:47:31.335Z,21.50
2019-05-28T10:48:35.895Z,30.40
2019-05-28T10:49:41.105Z,99.90
2019-05-28T10:50:45.722Z,99.90
2019-05-28T10:51:50.964Z,96.40
2019-05-28T10:52:55.538Z,99.90
2019-05-28T10:54:00.771Z,99.90
2019-05-28T10:55:06.416Z,56.10
2019-05-28T10:56:11.784Z,63.10
2019-05-28T10:57:16.514Z,58.70
2019-05-28T10:58:21.936Z,97.40
2019-05-28T10:59:26.555Z,93.90
2019-05-28T11:00:31.715Z,48.60
2019-05-28T11:01:36.294Z,28.00
2019-05-28T11:02:41.534Z,29.00
2019-05-28T11:03:47.194Z,14.90
2019-05-28T11:04:53.931Z,92.50
2019-05-28T11:05:58.693Z,94.90
2019-05-28T11:07:03.976Z,98.50
2019-05-28T11:08:08.735Z,99.90
2019-05-28T11:09:13.947Z,99.90
2019-05-28T11:10:24.124Z,24.10
2019-05-28T11:11:25.912Z,1.00
2019-05-28T11:12:30.555Z,1.00
2019-05-28T11:13:51.709Z,31.20
2019-05-28T11:14:42.154Z,1.00
2019-05-28T11:15:47.652Z,1.00
2019-05-28T11:16:52.432Z,1.00
2019-05-28T11:17:57.712Z,5.50
2019-05-28T11:19:02.385Z,1.00
2019-05-28T11:20:13.849Z,1.00
2019-05-28T11:21:18.503Z,1.00
2019-05-28T11:22:23.799Z,1.00
2019-05-28T11:23:28.468Z,1.00
2019-05-28T11:24:33.909Z,1.00
2019-05-28T11:25:38.630Z,1.00
2019-05-28T11:26:43.880Z,1.00
2019-05-28T11:27:48.509Z,1.00
2019-05-28T11:28:53.770Z,1.00
2019-05-28T11:29:58.440Z,1.00
2019-05-28T11:31:05.208Z,1.00
2019-05-28T11:32:10.851Z,1.00
2019-05-28T11:33:17.415Z,1.00
2019-05-28T11:34:22.361Z,1.00
2019-05-28T11:35:27.796Z,1.00
2019-05-28T11:36:32.487Z,1.00
2019-05-28T11:37:37.695Z,1.00
2019-05-28T11:38:42.468Z,1.00
2019-05-28T11:39:47.711Z,1.00
2019-05-28T11:40:53.326Z,1.00
2019-05-28T11:41:58.531Z,1.00
2019-05-28T11:43:03.234Z,1.00
2019-05-28T11:44:08.487Z,1.00
2019-05-28T11:45:16.296Z,1.00
2019-05-28T11:46:22.064Z,1.00
2019-05-28T11:47:26.891Z,1.00
2019-05-28T11:48:32.108Z,1.00
2019-05-28T11:49:36.796Z,1.00
2019-05-28T11:50:42.027Z,1.00
2019-05-28T11:51:46.663Z,1.00
2019-05-28T11:52:51.928Z,1.00
2019-05-28T11:53:56.572Z,1.00
2019-05-28T11:55:01.848Z,1.00
2019-05-28T11:56:06.431Z,1.00
2019-05-28T11:57:11.763Z,1.00
2019-05-28T11:58:16.420Z,1.00
2019-05-28T11:59:21.656Z,1.00
2019-05-28T12:00:27.304Z,1.00
2019-05-28T12:01:35.004Z,1.00
2019-05-28T12:02:38.871Z,1.00
2019-05-28T12:03:45.219Z,1.00
2019-05-28T12:04:50.976Z,1.00
2019-05-28T12:05:56.179Z,1.00
2019-05-28T12:07:00.783Z,1.00
2019-05-28T12:08:06.025Z,1.00
2019-05-28T12:09:10.641Z,1.00
2019-05-28T12:10:16.589Z,1.00
2019-05-28T12:11:21.199Z,1.00
2019-05-28T12:12:26.529Z,1.00
2019-05-28T12:13:31.191Z,1.00
2019-05-28T12:14:36.563Z,1.00
2019-05-28T12:15:41.327Z,1.00
2019-05-28T12:16:46.799Z,1.00
2019-05-28T12:17:51.502Z,1.00
2019-05-28T12:18:58.444Z,1.00
2019-05-28T12:20:03.702Z,1.00
2019-05-28T12:21:08.943Z,1.00
2019-05-28T12:22:13.570Z,1.00
2019-05-28T12:23:18.829Z,1.00
2019-05-28T12:24:28.068Z,1.00
2019-05-28T12:25:30.930Z,1.00
2019-05-28T12:26:35.525Z,1.00
2019-05-28T12:27:41.014Z,1.00
2019-05-28T12:28:45.613Z,1.00
2019-05-28T12:29:52.145Z,1.00
2019-05-28T12:30:56.966Z,1.00
2019-05-28T12:32:02.761Z,1.00
2019-05-28T12:33:08.506Z,1.00
2019-05-28T12:34:13.859Z,1.00
2019-05-28T12:35:28.488Z,1.00
2019-05-28T12:36:25.980Z,1.00
2019-05-28T12:37:47.215Z,1.00
2019-05-28T12:38:37.512Z,1.00
2019-05-28T12:39:42.187Z,1.00
2019-05-28T12:40:48.564Z,1.00
2019-05-28T12:42:02.997Z,1.00
2019-05-28T12:43:01.327Z,1.00
2019-05-28T12:44:07.570Z,1.00
2019-05-28T12:45:13.938Z,1.00
2019-05-28T12:46:18.509Z,1.00
2019-05-28T12:47:23.914Z,1.00
2019-05-28T12:48:28.565Z,1.00
2019-05-28T12:49:33.724Z,1.00
2019-05-28T12:50:38.297Z,1.00
2019-05-28T12:51:43.521Z,1.00
2019-05-28T12:52:48.166Z,1.00
2019-05-28T12:53:53.362Z,1.00
2019-05-28T12:54:57.951Z,1.00
2019-05-28T12:56:03.122Z,1.00
2019-05-28T12:57:07.830Z,1.00
2019-05-28T12:58:17.084Z,1.00
2019-05-28T12:59:19.391Z,1.00
2019-05-28T13:00:25.135Z,1.00
2019-05-28T13:01:29.703Z,1.00
2019-05-28T13:02:34.952Z,1.00
2019-05-28T13:03:39.643Z,1.00
2019-05-28T13:04:44.877Z,1.00
2019-05-28T13:05:49.531Z,1.00
2019-05-28T13:06:55.564Z,1.00
2019-05-28T13:08:10.195Z,1.00
2019-05-28T13:09:08.695Z,1.00
2019-05-28T13:10:14.180Z,1.00
2019-05-28T13:11:19.386Z,1.00
2019-05-28T13:12:23.997Z,1.00
2019-05-28T13:13:29.217Z,1.00
2019-05-28T13:14:33.847Z,1.00
2019-05-28T13:15:42.332Z,1.00
2019-05-28T13:16:45.371Z,1.00
2019-05-28T13:17:50.631Z,1.00
2019-05-28T13:18:55.434Z,1.00
2019-05-28T13:20:00.585Z,1.00
2019-05-28T13:21:05.228Z,1.00
2019-05-28T13:22:10.480Z,1.00
2019-05-28T13:23:15.130Z,1.00
2019-05-28T13:24:20.332Z,1.00
2019-05-28T13:25:24.947Z,1.00
2019-05-28T13:26:30.154Z,1.00
2019-05-28T13:27:34.765Z,1.00
2019-05-28T13:28:39.964Z,1.00
2019-05-28T13:29:44.526Z,1.00
2019-05-28T13:30:50.358Z,1.00
2019-05-28T13:31:55.064Z,1.00
2019-05-28T13:33:00.247Z,1.00
2019-05-28T13:34:05.250Z,1.00
2019-05-28T13:35:11.753Z,1.00
2019-05-28T13:36:16.340Z,1.00
2019-05-28T13:37:21.509Z,1.00
2019-05-28T13:38:27.811Z,1.00
2019-05-28T13:39:34.236Z,1.00
2019-05-28T13:40:38.796Z,1.00
2019-05-28T13:41:43.949Z,1.00
2019-05-28T13:42:48.541Z,1.00
2019-05-28T13:43:53.711Z,1.00
2019-05-28T13:44:58.313Z,1.00
2019-05-28T13:46:03.604Z,1.00
2019-05-28T13:47:08.234Z,1.00
2019-05-28T13:48:14.564Z,1.00
2019-05-28T13:49:19.265Z,1.00
2019-05-28T13:50:24.919Z,1.00
2019-05-28T13:51:29.564Z,1.00
2019-05-28T13:52:34.807Z,1.00
2019-05-28T13:53:39.449Z,1.00
2019-05-28T13:54:44.665Z,1.00
2019-05-28T13:55:49.258Z,1.00
2019-05-28T13:56:54.464Z,1.00
2019-05-28T13:57:59.181Z,1.00
2019-05-28T13:59:04.351Z,1.00
2019-05-28T14:00:10.533Z,1.00
2019-05-28T14:01:15.709Z,1.00
2019-05-28T14:02:20.265Z,1.00
2019-05-28T14:03:25.399Z,1.00
2019-05-28T14:04:30.061Z,1.00
2019-05-28T14:05:35.247Z,1.00
2019-05-28T14:06:44.111Z,1.00
2019-05-28T14:07:47.043Z,1.00
2019-05-28T14:08:51.625Z,1.00
2019-05-28T14:09:56.760Z,1.00
2019-05-28T14:11:01.343Z,1.00
2019-05-28T14:12:07.785Z,1.00
2019-05-28T14:13:12.386Z,1.00